createdAt,value
2018-03-15T00:00:30.129Z,999.54
2018-03-15T00:01:30.274Z,999.56
2018-03-15T00:02:30.087Z,999.51
2018-03-15T00:03:30.180Z,999.47
2018-03-15T00:04:30.022Z,999.46
2018-03-15T00:05:30.097Z,999.46
2018-03-15T00:06:29.972Z,999.43
2018-03-15T00:07:30.109Z,999.40
2018-03-15T00:08:29.945Z,999.42
2018-03-15T00:09:30.029Z,999.43
2018-03-15T00:10:29.865Z,999.40
2018-03-15T00:11:30.036Z,999.39
2018-03-15T00:12:29.808Z,999.40
2018-03-15T00:13:29.948Z,999.41
2018-03-15T00:14:29.756Z,999.38
2018-03-15T00:15:29.860Z,999.33
2018-03-15T00:16:29.702Z,999.33
2018-03-15T00:17:29.872Z,999.30
2018-03-15T00:18:29.649Z,999.33
2018-03-15T00:19:29.789Z,999.32
2018-03-15T00:20:29.589Z,999.36
2018-03-15T00:21:29.696Z,999.28
2018-03-15T00:22:29.538Z,999.32
2018-03-15T00:23:29.711Z,999.27
2018-03-15T00:24:29.484Z,999.30
2018-03-15T00:25:29.669Z,999.26
2018-03-15T00:26:29.426Z,999.25
2018-03-15T00:27:29.535Z,999.29
2018-03-15T00:28:29.375Z,999.23
2018-03-15T00:29:29.548Z,999.25
2018-03-15T00:30:29.319Z,999.23
2018-03-15T00:31:29.459Z,999.24
2018-03-15T00:32:29.264Z,999.24
2018-03-15T00:33:29.372Z,999.25
2018-03-15T00:34:29.209Z,999.19
2018-03-15T00:35:29.383Z,999.19
2018-03-15T00:36:29.153Z,999.13
2018-03-15T00:37:29.194Z,999.14
2018-03-15T00:38:29.103Z,999.11
2018-03-15T00:39:29.109Z,999.06
2018-03-15T00:40:29.046Z,999.02
2018-03-15T00:41:29.123Z,999.05
2018-03-15T00:42:28.996Z,999.05
2018-03-15T00:43:29.033Z,999.05
2018-03-15T00:44:28.938Z,999.05
2018-03-15T00:45:28.944Z,999.06
2018-03-15T00:46:28.882Z,999.06
2018-03-15T00:47:28.959Z,999.09
2018-03-15T00:48:28.828Z,999.06
2018-03-15T00:49:28.871Z,999.08
2018-03-15T00:50:28.775Z,999.11
2018-03-15T00:51:28.782Z,999.09
2018-03-15T00:52:28.718Z,999.08
2018-03-15T00:53:28.795Z,999.09
2018-03-15T00:54:28.663Z,999.09
2018-03-15T00:55:28.712Z,999.08
2018-03-15T00:56:28.610Z,999.04
2018-03-15T00:57:28.720Z,999.00
2018-03-15T00:58:28.555Z,998.98
2018-03-15T00:59:28.632Z,998.91
2018-03-15T01:00:28.500Z,998.91
2018-03-15T01:01:28.542Z,998.88
2018-03-15T01:02:28.448Z,998.87
2018-03-15T01:03:28.557Z,998.82
2018-03-15T01:04:28.391Z,998.85
2018-03-15T01:05:28.470Z,998.85
2018-03-15T01:06:28.335Z,998.79
2018-03-15T01:07:28.380Z,998.79
2018-03-15T01:08:28.282Z,998.77
2018-03-15T01:09:28.393Z,998.80
2018-03-15T01:10:28.229Z,998.76
2018-03-15T01:11:28.304Z,998.76
2018-03-15T01:12:28.171Z,998.75
2018-03-15T01:13:28.216Z,998.77
2018-03-15T01:14:28.117Z,998.73
2018-03-15T01:15:28.232Z,998.75
2018-03-15T01:16:28.067Z,998.76
2018-03-15T01:17:28.143Z,998.77
2018-03-15T01:18:28.013Z,998.76
2018-03-15T01:19:28.053Z,998.78
2018-03-15T01:20:27.955Z,998.71
2018-03-15T01:21:28.068Z,998.65
2018-03-15T01:22:27.899Z,998.64
2018-03-15T01:23:27.981Z,998.67
2018-03-15T01:24:27.844Z,998.64
2018-03-15T01:25:27.881Z,998.64
2018-03-15T01:26:27.792Z,998.64
2018-03-15T01:27:27.907Z,998.59
2018-03-15T01:28:27.735Z,998.55
2018-03-15T01:29:27.817Z,998.60
2018-03-15T01:30:27.681Z,998.53
2018-03-15T01:31:27.729Z,998.55
2018-03-15T01:32:27.629Z,998.46
2018-03-15T01:33:27.744Z,998.50
2018-03-15T01:34:27.575Z,998.46
2018-03-15T01:35:27.654Z,998.46
2018-03-15T01:36:27.515Z,998.46
2018-03-15T01:37:27.567Z,998.41
2018-03-15T01:38:27.502Z,998.38
2018-03-15T01:39:27.579Z,998.39
2018-03-15T01:40:27.411Z,998.39
2018-03-15T01:41:27.490Z,998.37
2018-03-15T01:42:27.350Z,998.34
2018-03-15T01:43:27.403Z,998.29
2018-03-15T01:44:27.296Z,998.32
2018-03-15T01:45:27.415Z,998.26
2018-03-15T01:46:27.243Z,998.23
2018-03-15T01:47:27.329Z,998.24
2018-03-15T01:48:27.189Z,998.25
2018-03-15T01:49:27.239Z,998.20
2018-03-15T01:50:27.129Z,998.21
2018-03-15T01:53:17.358Z,998.20
2018-03-15T01:53:58.728Z,998.20
2018-03-15T01:55:51.884Z,998.15
2018-03-15T01:56:51.680Z,998.11
2018-03-15T01:58:44.664Z,998.10
2018-03-15T01:59:44.717Z,998.04
2018-03-15T02:01:37.796Z,998.08
2018-03-15T02:02:37.590Z,998.05
2018-03-15T02:04:30.749Z,997.99
2018-03-15T02:05:30.545Z,997.97
2018-03-15T02:07:23.706Z,997.90
2018-03-15T02:08:23.497Z,997.92
2018-03-15T02:10:16.662Z,997.88
2018-03-15T02:11:16.455Z,997.81
2018-03-15T02:13:09.618Z,997.78
2018-03-15T02:14:09.411Z,997.85
2018-03-15T02:16:02.490Z,997.81
2018-03-15T02:17:02.365Z,997.79
2018-03-15T02:18:55.531Z,997.75
2018-03-15T02:19:55.324Z,997.78
2018-03-15T02:21:48.487Z,997.66
2018-03-15T02:22:48.276Z,997.71
2018-03-15T02:24:41.443Z,997.73
2018-03-15T02:25:41.228Z,997.63
2018-03-15T02:27:34.392Z,997.63
2018-03-15T02:28:34.184Z,997.63
2018-03-15T02:30:27.354Z,997.54
2018-03-15T02:31:27.152Z,997.53
2018-03-15T02:33:20.304Z,997.45
2018-03-15T02:34:20.097Z,997.43
2018-03-15T02:36:13.269Z,997.36
2018-03-15T02:37:13.053Z,997.31
2018-03-15T02:39:06.218Z,997.30
2018-03-15T02:40:06.008Z,997.31
2018-03-15T02:41:59.173Z,997.29
2018-03-15T02:42:58.964Z,997.37
2018-03-15T02:46:45.503Z,997.36
2018-03-15T02:48:18.667Z,997.34
2018-03-15T02:49:18.464Z,997.31
2018-03-15T02:51:11.623Z,997.28
2018-03-15T02:52:11.414Z,997.22
2018-03-15T02:54:04.475Z,997.29
2018-03-15T02:55:04.378Z,997.17
2018-03-15T02:56:57.438Z,997.23
2018-03-15T02:57:57.324Z,997.19
2018-03-15T02:59:50.392Z,997.17
2018-03-15T03:00:50.280Z,997.17
2018-03-15T03:02:43.341Z,997.12
2018-03-15T03:03:43.236Z,997.10
2018-03-15T03:05:36.197Z,997.01
2018-03-15T03:06:36.093Z,996.99
2018-03-15T03:08:29.051Z,997.06
2018-03-15T03:09:28.948Z,997.02
2018-03-15T03:11:21.901Z,996.97
2018-03-15T03:12:21.798Z,996.86
2018-03-15T03:14:14.754Z,996.86
2018-03-15T03:15:14.655Z,996.88
2018-03-15T03:17:07.608Z,996.84
2018-03-15T03:18:07.505Z,996.76
2018-03-15T03:20:01.484Z,996.82
2018-03-15T03:21:00.364Z,996.77
2018-03-15T03:22:53.307Z,996.77
2018-03-15T03:23:53.210Z,996.73
2018-03-15T03:25:46.165Z,996.69
2018-03-15T03:26:46.060Z,996.61
2018-03-15T03:28:39.016Z,996.69
2018-03-15T03:29:38.916Z,996.63
2018-03-15T03:31:31.873Z,996.54
2018-03-15T03:32:31.768Z,996.55
2018-03-15T03:34:24.824Z,996.55
2018-03-15T03:35:24.725Z,996.52
2018-03-15T03:37:17.676Z,996.46
2018-03-15T03:38:17.575Z,996.45
2018-03-15T03:40:10.636Z,996.40
2018-03-15T03:41:10.527Z,996.38
2018-03-15T03:43:03.487Z,996.27
2018-03-15T03:44:03.388Z,996.29
2018-03-15T03:45:56.442Z,996.31
2018-03-15T03:46:56.333Z,996.35
2018-03-15T03:48:49.397Z,996.28
2018-03-15T03:49:49.295Z,996.26
2018-03-15T03:51:42.352Z,996.26
2018-03-15T03:52:42.246Z,996.29
2018-03-15T03:54:35.415Z,996.20
2018-03-15T03:55:35.203Z,996.15
2018-03-15T03:57:28.265Z,996.11
2018-03-15T03:58:28.243Z,996.27
2018-03-15T04:00:21.320Z,996.16
2018-03-15T04:01:21.113Z,996.15
2018-03-15T04:03:14.277Z,996.12
2018-03-15T04:04:14.077Z,996.12
2018-03-15T04:06:07.237Z,996.06
2018-03-15T04:07:07.028Z,996.02
2018-03-15T04:09:00.188Z,996.07
2018-03-15T04:09:59.979Z,995.98
2018-03-15T04:11:53.141Z,995.96
2018-03-15T04:12:52.933Z,996.01
2018-03-15T04:14:46.102Z,995.89
2018-03-15T04:15:45.940Z,996.00
2018-03-15T04:17:39.052Z,995.91
2018-03-15T04:18:38.844Z,995.84
2018-03-15T04:20:32.030Z,995.87
2018-03-15T04:21:31.800Z,995.83
2018-03-15T04:23:24.970Z,995.86
2018-03-15T04:24:24.755Z,995.86
2018-03-15T04:26:17.922Z,995.80
2018-03-15T04:27:17.709Z,995.77
2018-03-15T04:29:10.876Z,995.75
2018-03-15T04:30:10.665Z,995.71
2018-03-15T04:32:03.832Z,995.69
2018-03-15T04:33:03.620Z,995.71
2018-03-15T04:34:56.786Z,995.65
2018-03-15T04:35:56.575Z,995.70
2018-03-15T04:37:49.743Z,995.67
2018-03-15T04:38:49.530Z,995.59
2018-03-15T04:40:42.694Z,995.66
2018-03-15T04:41:42.487Z,995.60
2018-03-15T04:43:35.651Z,995.53
2018-03-15T04:44:35.444Z,995.55
2018-03-15T04:46:28.609Z,995.52
2018-03-15T04:47:28.397Z,995.47
2018-03-15T04:49:21.560Z,995.47
2018-03-15T04:50:21.352Z,995.47
2018-03-15T04:52:14.515Z,995.49
2018-03-15T04:53:14.309Z,995.48
2018-03-15T04:55:07.470Z,995.44
2018-03-15T04:56:07.263Z,995.45
2018-03-15T04:58:00.426Z,995.42
2018-03-15T04:59:00.217Z,995.42
2018-03-15T05:00:53.382Z,995.37
2018-03-15T05:01:53.173Z,995.32
2018-03-15T05:05:20.476Z,995.30
2018-03-15T05:06:18.502Z,995.30
2018-03-15T05:08:11.659Z,995.25
2018-03-15T05:09:11.440Z,995.27
2018-03-15T05:11:04.513Z,995.29
2018-03-15T05:12:04.405Z,995.23
2018-03-15T05:13:57.467Z,995.17
2018-03-15T05:14:57.365Z,995.18
2018-03-15T05:16:50.421Z,995.18
2018-03-15T05:17:50.319Z,995.11
2018-03-15T05:19:43.378Z,995.15
2018-03-15T05:20:43.273Z,995.18
2018-03-15T05:22:36.229Z,995.13
2018-03-15T05:23:36.134Z,995.12
2018-03-15T05:25:29.083Z,995.05
2018-03-15T05:26:28.981Z,995.05
2018-03-15T05:28:21.937Z,995.00
2018-03-15T05:29:21.836Z,995.00
2018-03-15T05:31:14.930Z,995.09
2018-03-15T05:32:14.685Z,995.04
2018-03-15T05:34:07.644Z,995.05
2018-03-15T05:35:07.540Z,995.10
2018-03-15T05:37:00.495Z,995.12
2018-03-15T05:38:00.393Z,995.06
2018-03-15T05:39:53.344Z,995.09
2018-03-15T05:40:53.252Z,995.10
2018-03-15T05:42:46.197Z,995.06
2018-03-15T05:43:46.101Z,995.10
2018-03-15T05:45:39.152Z,995.05
2018-03-15T05:46:38.950Z,995.07
2018-03-15T05:48:31.904Z,995.03
2018-03-15T05:49:31.802Z,995.03
2018-03-15T05:51:24.762Z,994.96
2018-03-15T05:52:24.657Z,995.03
2018-03-15T05:54:17.611Z,995.06
2018-03-15T05:55:17.510Z,995.01
2018-03-15T05:57:10.566Z,995.00
2018-03-15T05:58:10.458Z,995.05
2018-03-15T06:00:03.420Z,994.98
2018-03-15T06:01:03.322Z,994.98
2018-03-15T06:02:56.328Z,994.93
2018-03-15T06:03:56.271Z,994.94
2018-03-15T06:05:49.329Z,994.91
2018-03-15T06:06:49.226Z,994.95
2018-03-15T06:08:42.287Z,994.90
2018-03-15T06:09:42.178Z,994.91
2018-03-15T06:11:35.342Z,994.86
2018-03-15T06:12:35.133Z,994.83
2018-03-15T06:14:28.195Z,994.94
2018-03-15T06:15:28.089Z,995.04
2018-03-15T06:17:21.254Z,995.00
2018-03-15T06:18:21.046Z,995.01
2018-03-15T06:20:14.103Z,994.99
2018-03-15T06:21:14.001Z,995.03
2018-03-15T06:23:07.166Z,995.03
2018-03-15T06:24:06.980Z,995.09
2018-03-15T06:26:00.121Z,995.01
2018-03-15T06:26:59.917Z,994.98
2018-03-15T06:28:53.118Z,994.99
2018-03-15T06:29:52.866Z,994.96
2018-03-15T06:31:46.033Z,994.96
2018-03-15T06:32:45.825Z,994.98
2018-03-15T06:34:38.983Z,994.96
2018-03-15T06:35:38.775Z,995.02
2018-03-15T06:37:31.939Z,994.97
2018-03-15T06:38:31.731Z,994.94
2018-03-15T06:40:24.901Z,994.95
2018-03-15T06:41:24.687Z,994.95
2018-03-15T06:43:17.849Z,994.93
2018-03-15T06:44:17.640Z,994.89
2018-03-15T06:46:10.814Z,994.79
2018-03-15T06:47:10.599Z,994.77
2018-03-15T06:48:10.698Z,994.87
2018-03-15T06:49:10.543Z,994.71
2018-03-15T06:50:10.711Z,994.79
2018-03-15T06:51:10.489Z,994.78
2018-03-15T06:52:10.657Z,994.82
2018-03-15T06:53:10.428Z,994.89
2018-03-15T06:54:10.534Z,994.88
2018-03-15T06:55:10.375Z,994.79
2018-03-15T06:56:10.545Z,994.82
2018-03-15T06:57:10.319Z,994.81
2018-03-15T06:58:10.457Z,994.80
2018-03-15T06:59:10.264Z,994.85
2018-03-15T07:00:10.373Z,994.78
2018-03-15T07:01:10.258Z,994.74
2018-03-15T07:02:10.376Z,994.73
2018-03-15T07:03:10.154Z,994.71
2018-03-15T07:04:10.293Z,994.70
2018-03-15T07:05:10.097Z,994.71
2018-03-15T07:06:10.199Z,994.73
2018-03-15T07:07:10.050Z,994.67
2018-03-15T07:08:10.218Z,994.70
2018-03-15T07:09:09.985Z,994.78
2018-03-15T07:10:10.132Z,994.69
2018-03-15T07:11:09.932Z,994.70
2018-03-15T07:12:10.035Z,994.72
2018-03-15T07:13:09.877Z,994.76
2018-03-15T07:14:10.064Z,994.73
2018-03-15T07:15:09.820Z,994.71
2018-03-15T07:16:09.971Z,994.70
2018-03-15T07:17:09.772Z,994.78
2018-03-15T07:18:09.883Z,994.79
2018-03-15T07:19:09.715Z,994.66
2018-03-15T07:20:09.894Z,994.79
2018-03-15T07:21:09.658Z,994.71
2018-03-15T07:22:09.804Z,994.83
2018-03-15T07:23:09.605Z,994.87
2018-03-15T07:24:09.714Z,994.75
2018-03-15T07:25:09.548Z,994.69
2018-03-15T07:26:09.730Z,994.78
2018-03-15T07:27:09.487Z,994.79
2018-03-15T07:28:09.537Z,994.86
2018-03-15T07:29:09.434Z,994.83
2018-03-15T07:30:09.452Z,994.78
2018-03-15T07:31:09.378Z,994.81
2018-03-15T07:32:09.467Z,994.81
2018-03-15T07:33:09.324Z,994.80
2018-03-15T07:34:09.392Z,994.83
2018-03-15T07:35:09.269Z,994.75
2018-03-15T07:36:09.288Z,994.79
2018-03-15T07:37:09.216Z,994.73
2018-03-15T07:38:09.307Z,994.80
2018-03-15T07:39:09.173Z,994.75
2018-03-15T07:40:09.212Z,994.73
2018-03-15T07:41:09.113Z,994.77
2018-03-15T07:42:09.125Z,994.76
2018-03-15T07:43:09.054Z,994.75
2018-03-15T07:44:09.138Z,994.83
2018-03-15T07:45:08.997Z,994.85
2018-03-15T07:46:09.052Z,994.76
2018-03-15T07:47:08.948Z,994.83
2018-03-15T07:48:08.962Z,994.81
2018-03-15T07:49:08.891Z,994.79
2018-03-15T07:50:08.973Z,994.92
2018-03-15T07:51:08.834Z,994.88
2018-03-15T07:52:08.892Z,994.85
2018-03-15T07:53:08.784Z,994.86
2018-03-15T07:54:08.807Z,994.83
2018-03-15T07:55:08.727Z,994.81
2018-03-15T07:56:08.807Z,994.79
2018-03-15T07:57:08.677Z,994.71
2018-03-15T07:58:08.725Z,994.63
2018-03-15T07:59:08.620Z,994.63
2018-03-15T08:00:08.738Z,994.69
2018-03-15T08:01:08.568Z,994.65
2018-03-15T08:02:08.649Z,994.68
2018-03-15T08:03:08.524Z,994.67
2018-03-15T08:04:08.561Z,994.73
2018-03-15T08:05:08.458Z,994.68
2018-03-15T08:06:08.578Z,994.66
2018-03-15T08:07:08.406Z,994.63
2018-03-15T08:08:08.487Z,994.57
2018-03-15T08:09:08.352Z,994.60
2018-03-15T08:10:08.397Z,994.66
2018-03-15T08:11:08.298Z,994.65
2018-03-15T08:12:08.411Z,994.65
2018-03-15T08:13:08.244Z,994.62
2018-03-15T08:14:08.324Z,994.59
2018-03-15T08:15:08.191Z,994.72
2018-03-15T08:16:08.238Z,994.65
2018-03-15T08:17:08.138Z,994.56
2018-03-15T08:18:08.259Z,994.61
2018-03-15T08:19:08.077Z,994.58
2018-03-15T08:20:08.163Z,994.57
2018-03-15T08:21:08.039Z,994.56
2018-03-15T08:22:08.074Z,994.55
2018-03-15T08:23:08.003Z,994.60
2018-03-15T08:24:08.090Z,994.56
2018-03-15T08:25:07.946Z,994.59
2018-03-15T08:26:08.001Z,994.61
2018-03-15T08:27:07.874Z,994.61
2018-03-15T08:28:08.017Z,994.52
2018-03-15T08:29:07.825Z,994.60
2018-03-15T08:30:07.924Z,994.57
2018-03-15T08:31:07.773Z,994.56
2018-03-15T08:32:07.835Z,994.52
2018-03-15T08:33:07.718Z,994.47
2018-03-15T08:34:07.850Z,994.52
2018-03-15T08:35:07.666Z,994.46
2018-03-15T08:36:07.763Z,994.46
2018-03-15T08:37:07.622Z,994.47
2018-03-15T08:38:07.674Z,994.34
2018-03-15T08:39:07.562Z,994.42
2018-03-15T08:40:07.628Z,994.42
2018-03-15T08:41:07.511Z,994.44
2018-03-15T08:42:07.597Z,994.41
2018-03-15T08:43:07.457Z,994.44
2018-03-15T08:44:07.508Z,994.39
2018-03-15T08:45:07.407Z,994.38
2018-03-15T08:46:07.524Z,994.31
2018-03-15T08:47:07.352Z,994.33
2018-03-15T08:48:07.436Z,994.25
2018-03-15T08:49:07.305Z,994.29
2018-03-15T08:50:07.449Z,994.25
2018-03-15T08:51:07.256Z,994.34
2018-03-15T08:52:07.359Z,994.32
2018-03-15T08:54:47.540Z,994.37
2018-03-15T08:55:38.842Z,994.34
2018-03-15T08:57:32.004Z,994.28
2018-03-15T08:58:31.790Z,994.22
2018-03-15T09:00:24.788Z,994.29
2018-03-15T09:01:24.934Z,994.35
2018-03-15T09:03:17.907Z,994.22
2018-03-15T09:04:17.708Z,994.15
2018-03-15T09:06:10.786Z,994.16
2018-03-15T09:07:10.660Z,994.14
2018-03-15T09:09:03.639Z,994.09
2018-03-15T09:10:03.552Z,994.17
2018-03-15T09:11:56.438Z,994.13
2018-03-15T09:12:56.392Z,994.08
2018-03-15T09:14:49.342Z,994.14
2018-03-15T09:15:49.247Z,993.99
2018-03-15T09:17:42.185Z,994.05
2018-03-15T09:18:42.132Z,994.03
2018-03-15T09:20:35.036Z,994.05
2018-03-15T09:21:34.949Z,994.00
2018-03-15T09:23:27.856Z,994.06
2018-03-15T09:24:27.878Z,994.00
2018-03-15T09:25:27.811Z,994.00
2018-03-15T09:26:27.881Z,994.03
2018-03-15T09:27:27.748Z,994.07
2018-03-15T09:28:27.728Z,994.02
2018-03-15T09:29:27.704Z,994.12
2018-03-15T09:30:27.702Z,994.10
2018-03-15T09:31:27.650Z,994.19
2018-03-15T09:32:27.714Z,994.22
2018-03-15T09:33:27.599Z,994.14
2018-03-15T09:34:27.682Z,994.24
2018-03-15T09:35:27.547Z,994.19
2018-03-15T09:36:27.636Z,994.15
2018-03-15T09:37:27.519Z,994.25
2018-03-15T09:38:27.547Z,994.26
2018-03-15T09:39:27.456Z,994.19
2018-03-15T09:40:27.460Z,994.19
2018-03-15T09:41:27.418Z,994.26
2018-03-15T09:42:27.471Z,994.14
2018-03-15T09:43:27.365Z,994.09
2018-03-15T09:44:27.380Z,994.16
2018-03-15T09:45:27.320Z,994.16
2018-03-15T09:46:27.392Z,994.11
2018-03-15T09:47:27.276Z,994.09
2018-03-15T09:48:27.305Z,994.10
2018-03-15T09:49:27.230Z,994.13
2018-03-15T09:50:27.312Z,994.15
2018-03-15T09:51:27.183Z,994.17
2018-03-15T09:52:27.223Z,994.12
2018-03-15T09:53:27.139Z,994.12
2018-03-15T09:54:27.132Z,994.11
2018-03-15T09:55:27.096Z,994.11
2018-03-15T09:56:27.146Z,994.15
2018-03-15T09:57:27.052Z,994.09
2018-03-15T09:58:27.057Z,994.00
2018-03-15T09:59:27.011Z,993.86
2018-03-15T10:00:27.069Z,993.83
2018-03-15T10:01:26.962Z,993.86
2018-03-15T10:02:26.980Z,993.84
2018-03-15T10:03:26.920Z,993.76
2018-03-15T10:04:26.991Z,993.77
2018-03-15T10:05:26.879Z,993.80
2018-03-15T10:06:26.903Z,993.71
2018-03-15T10:07:26.833Z,993.69
2018-03-15T10:08:26.915Z,993.58
2018-03-15T10:09:26.791Z,993.62
2018-03-15T10:10:26.825Z,993.61
2018-03-15T10:11:26.744Z,993.59
2018-03-15T10:12:26.836Z,993.56
2018-03-15T10:13:26.701Z,993.56
2018-03-15T10:14:26.747Z,993.59
2018-03-15T10:15:26.659Z,993.60
2018-03-15T10:16:26.676Z,993.55
2018-03-15T10:17:26.615Z,993.58
2018-03-15T10:18:26.670Z,993.56
2018-03-15T10:19:26.571Z,993.58
2018-03-15T10:20:26.582Z,993.59
2018-03-15T10:21:26.522Z,993.59
2018-03-15T10:22:26.591Z,993.60
2018-03-15T10:23:26.476Z,993.61
2018-03-15T10:24:26.502Z,993.56
2018-03-15T10:25:27.257Z,993.58
2018-03-15T10:26:26.516Z,993.57
2018-03-15T10:27:26.427Z,993.63
2018-03-15T10:28:26.428Z,993.65
2018-03-15T10:29:26.337Z,993.58
2018-03-15T10:30:26.340Z,993.58
2018-03-15T10:31:26.290Z,993.58
2018-03-15T10:32:26.352Z,993.63
2018-03-15T10:33:26.243Z,993.61
2018-03-15T10:34:26.256Z,993.56
2018-03-15T10:35:26.201Z,993.57
2018-03-15T10:36:26.269Z,993.59
2018-03-15T10:37:26.152Z,993.61
2018-03-15T10:38:26.176Z,993.52
2018-03-15T10:39:26.107Z,993.51
2018-03-15T10:40:26.206Z,993.49
2018-03-15T10:41:26.063Z,993.52
2018-03-15T10:42:26.107Z,993.50
2018-03-15T10:43:26.018Z,993.54
2018-03-15T10:44:26.016Z,993.52
2018-03-15T10:45:25.961Z,993.48
2018-03-15T10:46:26.026Z,993.51
2018-03-15T10:47:25.921Z,993.47
2018-03-15T10:48:25.935Z,993.48
2018-03-15T10:49:25.896Z,993.41
2018-03-15T10:50:25.948Z,993.42
2018-03-15T10:51:25.826Z,993.41
2018-03-15T10:52:25.864Z,993.40
2018-03-15T10:53:25.784Z,993.44
2018-03-15T10:54:25.769Z,993.37
2018-03-15T10:55:25.735Z,993.33
2018-03-15T10:56:25.783Z,993.32
2018-03-15T10:57:25.687Z,993.42
2018-03-15T10:58:25.691Z,993.37
2018-03-15T10:59:25.641Z,993.36
2018-03-15T11:00:25.703Z,993.41
2018-03-15T11:01:25.599Z,993.37
2018-03-15T11:02:25.614Z,993.34
2018-03-15T11:03:25.545Z,993.32
2018-03-15T11:04:26.551Z,993.37
2018-03-15T11:05:25.507Z,993.31
2018-03-15T11:06:25.534Z,993.32
2018-03-15T11:07:25.457Z,993.32
2018-03-15T11:08:25.445Z,993.31
2018-03-15T11:09:25.434Z,993.36
2018-03-15T11:10:25.453Z,993.35
2018-03-15T11:11:25.364Z,993.37
2018-03-15T11:12:25.369Z,993.29
2018-03-15T11:13:25.317Z,993.37
2018-03-15T11:14:25.386Z,993.33
2018-03-15T11:15:25.268Z,993.36
2018-03-15T11:16:25.289Z,993.34
2018-03-15T11:17:25.226Z,993.32
2018-03-15T11:18:25.322Z,993.33
2018-03-15T11:19:25.180Z,993.30
2018-03-15T11:20:25.213Z,993.32
2018-03-15T11:21:25.132Z,993.30
2018-03-15T11:22:25.121Z,993.32
2018-03-15T11:23:25.087Z,993.37
2018-03-15T11:24:25.135Z,993.37
2018-03-15T11:25:25.044Z,993.45
2018-03-15T11:26:25.047Z,993.42
2018-03-15T11:27:24.994Z,993.38
2018-03-15T11:28:25.058Z,993.40
2018-03-15T11:29:24.948Z,993.44
2018-03-15T11:30:24.968Z,993.38
2018-03-15T11:31:24.902Z,993.42
2018-03-15T11:32:24.982Z,993.38
2018-03-15T11:33:24.852Z,993.37
2018-03-15T11:34:24.884Z,993.32
2018-03-15T11:35:24.809Z,993.34
2018-03-15T11:36:24.801Z,993.33
2018-03-15T11:37:24.767Z,993.36
2018-03-15T11:38:24.816Z,993.37
2018-03-15T11:39:24.720Z,993.32
2018-03-15T11:40:24.727Z,993.38
2018-03-15T11:41:24.676Z,993.34
2018-03-15T11:42:24.738Z,993.33
2018-03-15T11:43:24.629Z,993.32
2018-03-15T11:44:24.652Z,993.32
2018-03-15T11:45:24.582Z,993.28
2018-03-15T11:46:24.671Z,993.28
2018-03-15T11:47:24.539Z,993.22
2018-03-15T11:48:24.571Z,993.25
2018-03-15T11:49:24.491Z,993.18
2018-03-15T11:50:24.587Z,993.17
2018-03-15T11:51:24.447Z,993.11
2018-03-15T11:52:24.497Z,993.17
2018-03-15T11:53:24.400Z,993.16
2018-03-15T11:54:24.405Z,993.19
2018-03-15T11:55:24.360Z,993.22
2018-03-15T11:56:24.417Z,993.22
2018-03-15T11:57:24.309Z,993.18
2018-03-15T11:58:24.327Z,993.19
2018-03-15T11:59:24.265Z,993.16
2018-03-15T12:00:24.329Z,993.16
2018-03-15T12:01:24.221Z,993.18
2018-03-15T12:02:24.246Z,993.14
2018-03-15T12:03:24.176Z,993.12
2018-03-15T12:04:24.258Z,993.14
2018-03-15T12:05:24.130Z,993.06
2018-03-15T12:06:24.169Z,992.98
2018-03-15T12:07:24.079Z,992.99
2018-03-15T12:08:24.081Z,993.06
2018-03-15T12:09:24.038Z,993.12
2018-03-15T12:10:24.092Z,993.09
2018-03-15T12:11:23.996Z,993.07
2018-03-15T12:12:24.001Z,993.06
2018-03-15T12:13:23.950Z,993.03
2018-03-15T12:14:24.014Z,993.05
2018-03-15T12:15:23.909Z,993.04
2018-03-15T12:16:23.932Z,993.06
2018-03-15T12:17:23.860Z,993.05
2018-03-15T12:18:23.940Z,993.06
2018-03-15T12:19:23.815Z,993.03
2018-03-15T12:20:23.846Z,992.97
2018-03-15T12:21:23.770Z,992.99
2018-03-15T12:22:23.859Z,992.94
2018-03-15T12:23:23.729Z,992.99
2018-03-15T12:24:23.763Z,992.96
2018-03-15T12:25:23.682Z,992.94
2018-03-15T12:26:23.679Z,992.92
2018-03-15T12:27:23.638Z,992.89
2018-03-15T12:28:23.718Z,992.94
2018-03-15T12:29:23.593Z,992.88
2018-03-15T12:30:23.630Z,992.87
2018-03-15T12:31:23.548Z,992.84
2018-03-15T12:32:23.647Z,992.86
2018-03-15T12:33:23.500Z,992.84
2018-03-15T12:34:23.556Z,992.82
2018-03-15T12:35:23.474Z,992.78
2018-03-15T12:36:23.570Z,992.79
2018-03-15T12:37:23.416Z,992.83
2018-03-15T12:38:23.393Z,992.84
2018-03-15T12:39:23.457Z,992.80
2018-03-15T12:40:23.353Z,992.82
2018-03-15T12:41:23.369Z,992.77
2018-03-15T12:42:23.307Z,992.75
2018-03-15T12:43:23.291Z,992.75
2018-03-15T12:44:23.260Z,992.74
2018-03-15T12:45:23.289Z,992.69
2018-03-15T12:46:23.212Z,992.65
2018-03-15T12:47:23.304Z,992.61
2018-03-15T12:48:23.183Z,992.55
2018-03-15T12:49:23.207Z,992.54
2018-03-15T12:50:23.133Z,992.54
2018-03-15T12:51:23.222Z,992.55
2018-03-15T12:52:23.087Z,992.56
2018-03-15T12:53:23.133Z,992.53
2018-03-15T12:54:23.044Z,992.53
2018-03-15T12:55:23.044Z,992.53
2018-03-15T12:56:22.992Z,992.52
2018-03-15T12:57:23.119Z,992.47
2018-03-15T12:58:22.956Z,992.50
2018-03-15T12:59:22.966Z,992.41
2018-03-15T13:00:22.916Z,992.54
2018-03-15T13:01:22.984Z,992.54
2018-03-15T13:02:22.862Z,992.51
2018-03-15T13:03:22.889Z,992.58
2018-03-15T13:04:22.822Z,992.53
2018-03-15T13:05:22.901Z,992.53
2018-03-15T13:06:22.773Z,992.53
2018-03-15T13:07:22.820Z,992.60
2018-03-15T13:08:22.732Z,992.54
2018-03-15T13:09:22.721Z,992.43
2018-03-15T13:10:22.684Z,992.48
2018-03-15T13:11:22.736Z,992.41
2018-03-15T13:12:22.643Z,992.39
2018-03-15T13:13:22.643Z,992.42
2018-03-15T13:14:22.599Z,992.36
2018-03-15T13:15:22.657Z,992.33
2018-03-15T13:16:22.547Z,992.34
2018-03-15T13:17:22.568Z,992.33
2018-03-15T13:18:22.512Z,992.32
2018-03-15T13:19:22.581Z,992.31
2018-03-15T13:20:22.462Z,992.33
2018-03-15T13:21:22.488Z,992.30
2018-03-15T13:22:22.417Z,992.27
2018-03-15T13:23:22.503Z,992.32
2018-03-15T13:24:22.368Z,992.31
2018-03-15T13:25:22.411Z,992.25
2018-03-15T13:26:22.330Z,992.20
2018-03-15T13:27:22.328Z,992.29
2018-03-15T13:28:22.285Z,992.25
2018-03-15T13:29:22.335Z,992.30
2018-03-15T13:30:22.240Z,992.28
2018-03-15T13:31:22.263Z,992.27
2018-03-15T13:32:22.194Z,992.29
2018-03-15T13:33:22.257Z,992.26
2018-03-15T13:34:22.207Z,992.32
2018-03-15T13:35:22.157Z,992.30
2018-03-15T13:36:22.112Z,992.30
2018-03-15T13:37:22.177Z,992.32
2018-03-15T13:38:22.055Z,992.32
2018-03-15T13:39:22.096Z,992.31
2018-03-15T13:40:22.017Z,992.34
2018-03-15T13:43:26.740Z,992.31
2018-03-15T13:43:53.656Z,992.35
2018-03-15T13:45:47.546Z,992.37
2018-03-15T13:46:46.432Z,992.32
2018-03-15T13:48:39.369Z,992.38
2018-03-15T13:49:39.305Z,992.37
2018-03-15T13:51:32.219Z,992.41
2018-03-15T13:52:32.134Z,992.40
2018-03-15T13:54:25.071Z,992.43
2018-03-15T13:55:24.983Z,992.45
2018-03-15T14:00:42.586Z,992.48
2018-03-15T14:01:42.498Z,992.50
2018-03-15T14:03:35.438Z,992.50
2018-03-15T14:04:35.345Z,992.49
2018-03-15T14:06:28.292Z,992.46
2018-03-15T14:07:28.197Z,992.44
2018-03-15T14:09:21.160Z,992.34
2018-03-15T14:10:21.044Z,992.34
2018-03-15T14:12:13.997Z,992.27
2018-03-15T14:13:13.906Z,992.31
2018-03-15T14:15:06.833Z,992.27
2018-03-15T14:16:06.753Z,992.27
2018-03-15T14:17:59.637Z,992.34
2018-03-15T14:18:59.681Z,992.31
2018-03-15T14:20:52.538Z,992.30
2018-03-15T14:21:52.459Z,992.33
2018-03-15T14:23:45.388Z,992.35
2018-03-15T14:24:45.306Z,992.28
2018-03-15T14:26:38.704Z,992.25
2018-03-15T14:27:38.153Z,992.24
2018-03-15T14:29:31.193Z,992.22
2018-03-15T14:30:31.110Z,992.17